• Join FlightAware (Why Join?)
  • Login
  • US Flag 
07:38PM EDT


 

Airport Tracker/Info


-or-


 

Live Flight TrackerFlight Track Log ✈ N172RA ✈ 08-Jul-2013 ✈ KSSI - KEVB

Flight Track Log - Related Links

Times and Time Zones

All times are in EDT time to prevent confusion due to time zone crossing. See the N172RA flight status page for this flight to view local times or setup timezone preferences in your user account.

Time Position Orientation Groundspeed Altitude Reporting Facility
EDT Latitude Longitude Course Direction KTS MPH feet Rate Location/Type
11:38PM 31.0200 -81.4236 27° Northeast 101 116 2,000  Level Jacksonville Center
11:38PM 31.0014 -81.4261 187° South 96 110 2,000 360 Level Jacksonville Center
11:39PM 30.9786 -81.4339 196° South 89 102 2,700 540 Climbing Jacksonville Center
11:40PM 30.9556 -81.4367 186° South 80 92 3,200 540 Climbing Jacksonville Center
11:41PM 30.9306 -81.4394 185° South 86 99 3,800 540 Climbing Jacksonville Center
11:42PM 30.9056 -81.4422 185° South 94 108 4,400 540 Climbing Jacksonville Center
11:43PM 30.8783 -81.4450 185° South 94 108 4,900 540 Climbing Jacksonville Center
11:44PM 30.8514 -81.4481 186° South 96 110 5,500 480 Climbing Jacksonville Center
11:45PM 30.8264 -81.4508 185° South 96 110 5,900 420 Climbing Jacksonville Center
11:47PM 30.7992 -81.4536 185° South 97 112 6,400 480 Climbing Jacksonville Center
11:48PM 30.7700 -81.4589 189° South 97 112 6,900 480 Climbing Jacksonville Center
11:49PM 30.7428 -81.4617 185° South 95 109 7,400 420 Climbing Jacksonville Center
11:50PM 30.7178 -81.4644 185° South 90 104 7,800 240 Climbing Jacksonville Center
11:51PM 30.6908 -81.4672 185° South 103 119 8,000 60 Climbing Jacksonville Center
11:52PM 30.6617 -81.4700 185° South 110 127 8,000  Level Jacksonville Center
11:53PM 30.6283 -81.4756 188° South 114 131 8,000  Level Jacksonville Center
11:54PM 30.5947 -81.4808 188° South 112 129 8,000 -60 Level Jacksonville Center
11:55PM 30.5678 -81.4836 185° South 107 123 7,900 -60 Descending Jacksonville Center
11:56PM 30.5386 -81.4889 189° South 105 121 7,900  Level Jacksonville Center
11:57PM 30.5053 -81.4917 184° South 107 123 7,900  Level Jacksonville Center
11:58PM 30.4781 -81.4944 185° South 101 116 7,900  Level Jacksonville Center
11:59PM 30.4489 -81.4975 185° South 106 122 7,900  Level Jacksonville Center
12:00AM 30.4197 -81.5003 185° South 107 123 8,000  Climbing Jacksonville Center
12:01AM 30.3883 -81.5056 188° South 106 122 8,000  Level Jacksonville Center
12:02AM 30.3592 -81.5083 185° South 106 122 8,000  Level Jacksonville Center
12:03AM 30.3300 -81.5111 185° South 108 124 8,000  Level Jacksonville Center
12:04AM 30.2986 -81.4972 159° South 108 124 8,000 -60 Level Jacksonville Center
12:05AM 30.2733 -81.4903 167° South 107 123 7,900  Descending Jacksonville Center
12:06AM 30.2419 -81.4786 162° South 105 121 8,000  Climbing Jacksonville Center
12:07AM 30.2167 -81.4647 155° Southeast 106 122 8,000 -60 Level Jacksonville Center
12:08AM 30.1875 -81.4603 172° South 109 125 7,900 -60 Descending Jacksonville Center
12:09AM 30.1603 -81.4464 156° South 105 121 7,900  Level Jacksonville Center
12:10AM 30.1350 -81.4322 154° Southeast 115 132 7,900  Level Jacksonville Center
12:11AM 30.1056 -81.4208 161° South 100 115 7,900  Level Jacksonville Center
12:12AM 30.0783 -81.4117 164° South 104 120 7,900  Level Jacksonville Center
12:13AM 30.0511 -81.4022 163° South 107 123 7,900  Level Jacksonville Center
12:14AM 30.0281 -81.3931 161° South 105 121 8,000 60 Climbing Jacksonville Center
12:14AM 30.0111 -81.3839 155° Southeast 106 122 8,000 60 Level Jacksonville Center
12:15AM 29.9861 -81.3747 162° South 104 120 8,100  Climbing Jacksonville Center
12:16AM 29.9567 -81.3656 165° South 107 123 8,100  Level Jacksonville Center
12:17AM 29.9294 -81.3539 160° South 113 130 8,100  Level Jacksonville Center
12:18AM 29.8981 -81.3425 163° South 116 133 8,200  Climbing Jacksonville Center
12:19AM 29.8644 -81.3333 167° South 124 143 8,100 -180 Descending Jacksonville Center
12:20AM 29.8331 -81.3172 156° South 130 150 7,900 -60 Descending Jacksonville Center
12:21AM 29.7975 -81.3081 167° South 121 139 8,000  Climbing Jacksonville Center
12:22AM 29.7700 -81.2992 164° South 114 131 8,000 -120 Level Jacksonville Center
12:23AM 29.7364 -81.2828 157° South 120 138 7,800 -300 Descending Jacksonville Center
12:24AM 29.7008 -81.2692 162° South 136 157 7,400 -480 Descending Jacksonville Center
12:25AM 29.6653 -81.2553 161° South 139 160 6,900 -540 Descending Jacksonville Center
12:26AM 29.6294 -81.2417 162° South 138 159 6,400 -480 Descending Jacksonville Center
12:27AM 29.5919 -81.2328 168° South 134 154 6,000 -420 Descending Jacksonville Center
12:28AM 29.5581 -81.2142 154° Southeast 128 147 5,600 -480 Descending Jacksonville Center
12:29AM 29.5289 -81.2003 157° South 126 145 5,100 -540 Descending Jacksonville Center
12:30AM 29.4911 -81.1867 163° South 128 147 4,600 -420 Descending Jacksonville Center
12:31AM 29.4597 -81.1778 166° South 119 137 4,300 -360 Descending Jacksonville Center
12:32AM 29.4281 -81.1639 159° South 119 137 3,900 -420 Descending Jacksonville Center
12:33AM 29.3967 -81.1525 162° South 119 137 3,500 -420 Descending Jacksonville Center
12:34AM 29.3653 -81.1411 162° South 113 130 3,100 -360 Descending Jacksonville Center
12:35AM 29.3378 -81.1297 160° South 114 131 2,800 -300 Descending Jacksonville Center
12:36AM 29.3064 -81.1161 159° South 112 129 2,600 -300 Descending Jacksonville Center
12:37AM 29.2769 -81.1022 158° South 110 127 2,300 -300 Descending Jacksonville Center
12:38AM 29.2497 -81.0886 156° South 109 125 2,100 -120 Descending Jacksonville Center
12:39AM 29.2203 -81.0747 158° South 105 121 2,100 -60 Level Jacksonville Center
12:40AM 29.1950 -81.0633 159° South 98 113 2,000  Descending Jacksonville Center
12:41AM 29.1697 -81.0472 151° Southeast 99 114 2,100 60 Climbing Jacksonville Center